sensor_id;sensor_type;location;lat;lon;timestamp;temperature;humidity
8002;DHT22;4046;48.774;8.732;2022-10-16T00:01:11;20.60;99.90
8002;DHT22;4046;48.774;8.732;2022-10-16T00:03:39;20.60;99.90
8002;DHT22;4046;48.774;8.732;2022-10-16T00:06:05;20.60;99.90
8002;DHT22;4046;48.774;8.732;2022-10-16T00:08:32;20.60;99.90
8002;DHT22;4046;48.774;8.732;2022-10-16T00:11:00;20.70;99.90
8002;DHT22;4046;48.774;8.732;2022-10-16T00:13:26;20.70;99.90
8002;DHT22;4046;48.774;8.732;2022-10-16T00:15:55;20.60;99.90
8002;DHT22;4046;48.774;8.732;2022-10-16T00:18:21;20.50;99.90
8002;DHT22;4046;48.774;8.732;2022-10-16T00:20:47;20.60;99.90
8002;DHT22;4046;48.774;8.732;2022-10-16T00:23:13;20.60;99.90
8002;DHT22;4046;48.774;8.732;2022-10-16T00:25:38;20.60;99.90
8002;DHT22;4046;48.774;8.732;2022-10-16T00:28:04;20.60;99.90
8002;DHT22;4046;48.774;8.732;2022-10-16T00:30:30;20.60;99.90
8002;DHT22;4046;48.774;8.732;2022-10-16T00:32:56;20.60;99.90
8002;DHT22;4046;48.774;8.732;2022-10-16T00:35:22;20.60;99.90
8002;DHT22;4046;48.774;8.732;2022-10-16T00:37:47;20.60;99.90
8002;DHT22;4046;48.774;8.732;2022-10-16T00:40:13;20.60;99.90
8002;DHT22;4046;48.774;8.732;2022-10-16T00:42:39;20.70;99.90
8002;DHT22;4046;48.774;8.732;2022-10-16T00:45:06;20.50;99.90
8002;DHT22;4046;48.774;8.732;2022-10-16T00:47:38;20.50;99.90
8002;DHT22;4046;48.774;8.732;2022-10-16T00:50:11;20.50;99.90
8002;DHT22;4046;48.774;8.732;2022-10-16T00:52:41;20.50;99.90
8002;DHT22;4046;48.774;8.732;2022-10-16T00:55:09;20.50;99.90
8002;DHT22;4046;48.774;8.732;2022-10-16T00:57:35;20.50;99.90
8002;DHT22;4046;48.774;8.732;2022-10-16T01:00:03;20.50;99.90
8002;DHT22;4046;48.774;8.732;2022-10-16T01:02:30;20.50;99.90
8002;DHT22;4046;48.774;8.732;2022-10-16T01:04:56;20.50;99.90
8002;DHT22;4046;48.774;8.732;2022-10-16T01:07:36;20.40;99.90
8002;DHT22;4046;48.774;8.732;2022-10-16T01:13:15;20.50;99.90
8002;DHT22;4046;48.774;8.732;2022-10-16T01:18:25;20.40;99.90
8002;DHT22;4046;48.774;8.732;2022-10-16T01:20:55;20.40;99.90
8002;DHT22;4046;48.774;8.732;2022-10-16T01:23:30;20.40;99.90
8002;DHT22;4046;48.774;8.732;2022-10-16T01:26:13;20.50;99.90
8002;DHT22;4046;48.774;8.732;2022-10-16T01:28:53;20.50;99.90
8002;DHT22;4046;48.774;8.732;2022-10-16T01:31:24;20.50;99.90
8002;DHT22;4046;48.774;8.732;2022-10-16T01:33:58;20.50;99.90
8002;DHT22;4046;48.774;8.732;2022-10-16T01:36:31;20.40;99.90
8002;DHT22;4046;48.774;8.732;2022-10-16T01:39:02;20.40;99.90
8002;DHT22;4046;48.774;8.732;2022-10-16T01:41:35;20.40;99.90
8002;DHT22;4046;48.774;8.732;2022-10-16T01:44:11;20.40;99.90
8002;DHT22;4046;48.774;8.732;2022-10-16T01:46:40;20.40;99.90
8002;DHT22;4046;48.774;8.732;2022-10-16T01:49:08;20.40;99.90
8002;DHT22;4046;48.774;8.732;2022-10-16T01:51:35;20.40;99.90
8002;DHT22;4046;48.774;8.732;2022-10-16T01:54:05;20.40;99.90
8002;DHT22;4046;48.774;8.732;2022-10-16T01:56:33;20.50;99.90
8002;DHT22;4046;48.774;8.732;2022-10-16T01:59:15;20.50;99.90
8002;DHT22;4046;48.774;8.732;2022-10-16T02:01:44;20.40;99.90
8002;DHT22;4046;48.774;8.732;2022-10-16T02:04:16;20.40;99.90
8002;DHT22;4046;48.774;8.732;2022-10-16T02:06:43;20.40;99.90
8002;DHT22;4046;48.774;8.732;2022-10-16T02:09:08;20.40;99.90
8002;DHT22;4046;48.774;8.732;2022-10-16T02:11:34;20.30;99.90
8002;DHT22;4046;48.774;8.732;2022-10-16T02:14:06;20.40;99.90
8002;DHT22;4046;48.774;8.732;2022-10-16T02:16:41;20.40;99.90
8002;DHT22;4046;48.774;8.732;2022-10-16T02:19:08;20.40;99.90
8002;DHT22;4046;48.774;8.732;2022-10-16T02:21:46;20.40;99.90
8002;DHT22;4046;48.774;8.732;2022-10-16T02:27:27;20.40;99.90
8002;DHT22;4046;48.774;8.732;2022-10-16T02:32:34;20.40;99.90
8002;DHT22;4046;48.774;8.732;2022-10-16T02:35:01;20.30;99.90
8002;DHT22;4046;48.774;8.732;2022-10-16T02:37:28;20.40;99.90
8002;DHT22;4046;48.774;8.732;2022-10-16T02:39:55;20.40;99.90
8002;DHT22;4046;48.774;8.732;2022-10-16T02:42:28;20.30;99.90
8002;DHT22;4046;48.774;8.732;2022-10-16T02:44:54;20.40;99.90
8002;DHT22;4046;48.774;8.732;2022-10-16T02:47:19;20.40;99.90
8002;DHT22;4046;48.774;8.732;2022-10-16T02:49:45;20.30;99.90
8002;DHT22;4046;48.774;8.732;2022-10-16T02:52:11;20.50;99.90
8002;DHT22;4046;48.774;8.732;2022-10-16T02:54:37;20.40;99.90
8002;DHT22;4046;48.774;8.732;2022-10-16T02:57:02;20.40;99.90
8002;DHT22;4046;48.774;8.732;2022-10-16T02:59:28;20.40;99.90
8002;DHT22;4046;48.774;8.732;2022-10-16T03:01:54;20.30;99.90
8002;DHT22;4046;48.774;8.732;2022-10-16T03:04:20;20.30;99.90
8002;DHT22;4046;48.774;8.732;2022-10-16T03:06:45;20.20;99.90
8002;DHT22;4046;48.774;8.732;2022-10-16T03:09:11;20.30;99.90
8002;DHT22;4046;48.774;8.732;2022-10-16T03:11:37;20.30;99.90
8002;DHT22;4046;48.774;8.732;2022-10-16T03:14:03;20.30;99.90
8002;DHT22;4046;48.774;8.732;2022-10-16T03:16:28;20.30;99.90
8002;DHT22;4046;48.774;8.732;2022-10-16T03:18:54;20.30;99.90
8002;DHT22;4046;48.774;8.732;2022-10-16T03:21:20;20.30;99.90
8002;DHT22;4046;48.774;8.732;2022-10-16T03:23:45;20.30;99.90
8002;DHT22;4046;48.774;8.732;2022-10-16T03:26:12;20.30;99.90
8002;DHT22;4046;48.774;8.732;2022-10-16T03:28:37;20.30;99.90
8002;DHT22;4046;48.774;8.732;2022-10-16T03:31:03;20.30;99.90
8002;DHT22;4046;48.774;8.732;2022-10-16T03:33:29;20.30;99.90
8002;DHT22;4046;48.774;8.732;2022-10-16T03:35:55;20.30;99.90
8002;DHT22;4046;48.774;8.732;2022-10-16T03:38:21;20.40;99.90
8002;DHT22;4046;48.774;8.732;2022-10-16T03:40:47;20.20;99.90
8002;DHT22;4046;48.774;8.732;2022-10-16T03:43:13;20.20;99.90
8002;DHT22;4046;48.774;8.732;2022-10-16T03:45:38;20.20;99.90
8002;DHT22;4046;48.774;8.732;2022-10-16T03:48:04;20.30;99.90
8002;DHT22;4046;48.774;8.732;2022-10-16T03:50:30;20.50;99.90
8002;DHT22;4046;48.774;8.732;2022-10-16T03:52:55;20.40;99.90
8002;DHT22;4046;48.774;8.732;2022-10-16T03:55:21;20.30;99.90
8002;DHT22;4046;48.774;8.732;2022-10-16T03:57:47;20.30;99.90
8002;DHT22;4046;48.774;8.732;2022-10-16T04:00:13;20.30;99.90
8002;DHT22;4046;48.774;8.732;2022-10-16T04:02:38;20.40;99.90
8002;DHT22;4046;48.774;8.732;2022-10-16T04:05:04;20.20;99.90
8002;DHT22;4046;48.774;8.732;2022-10-16T04:07:30;20.20;99.90
8002;DHT22;4046;48.774;8.732;2022-10-16T04:09:56;20.20;99.90
8002;DHT22;4046;48.774;8.732;2022-10-16T04:12:24;20.20;99.90
8002;DHT22;4046;48.774;8.732;2022-10-16T04:14:50;20.20;99.90
8002;DHT22;4046;48.774;8.732;2022-10-16T04:17:16;20.20;99.90
8002;DHT22;4046;48.774;8.732;2022-10-16T04:19:42;20.20;99.90
8002;DHT22;4046;48.774;8.732;2022-10-16T04:22:08;20.20;99.90
8002;DHT22;4046;48.774;8.732;2022-10-16T04:24:33;20.30;99.90
8002;DHT22;4046;48.774;8.732;2022-10-16T04:26:59;20.20;99.90
8002;DHT22;4046;48.774;8.732;2022-10-16T04:29:25;20.20;99.90
8002;DHT22;4046;48.774;8.732;2022-10-16T04:31:51;20.20;99.90
8002;DHT22;4046;48.774;8.732;2022-10-16T04:34:17;20.20;99.90
8002;DHT22;4046;48.774;8.732;2022-10-16T04:36:42;20.20;99.90
8002;DHT22;4046;48.774;8.732;2022-10-16T04:39:08;20.20;99.90
8002;DHT22;4046;48.774;8.732;2022-10-16T04:41:34;20.20;99.90
8002;DHT22;4046;48.774;8.732;2022-10-16T04:43:59;20.20;99.90
8002;DHT22;4046;48.774;8.732;2022-10-16T04:46:25;20.10;99.90
8002;DHT22;4046;48.774;8.732;2022-10-16T04:48:51;20.20;99.90
8002;DHT22;4046;48.774;8.732;2022-10-16T04:51:16;20.10;99.90
8002;DHT22;4046;48.774;8.732;2022-10-16T04:53:42;20.20;99.90
8002;DHT22;4046;48.774;8.732;2022-10-16T04:56:08;20.10;99.90
8002;DHT22;4046;48.774;8.732;2022-10-16T04:58:33;20.20;99.90
8002;DHT22;4046;48.774;8.732;2022-10-16T05:00:59;20.20;99.90
8002;DHT22;4046;48.774;8.732;2022-10-16T05:03:25;20.20;99.90
8002;DHT22;4046;48.774;8.732;2022-10-16T05:05:50;20.20;99.90
8002;DHT22;4046;48.774;8.732;2022-10-16T05:08:16;20.20;99.90
8002;DHT22;4046;48.774;8.732;2022-10-16T05:10:44;20.10;99.90
8002;DHT22;4046;48.774;8.732;2022-10-16T05:13:10;20.20;99.90
8002;DHT22;4046;48.774;8.732;2022-10-16T05:15:36;20.20;99.90
8002;DHT22;4046;48.774;8.732;2022-10-16T05:18:02;20.20;99.90
8002;DHT22;4046;48.774;8.732;2022-10-16T05:20:27;20.20;99.90
8002;DHT22;4046;48.774;8.732;2022-10-16T05:22:53;20.10;99.90
8002;DHT22;4046;48.774;8.732;2022-10-16T05:25:19;20.10;99.90
8002;DHT22;4046;48.774;8.732;2022-10-16T05:27:48;20.20;99.90
8002;DHT22;4046;48.774;8.732;2022-10-16T05:30:14;20.20;99.90
8002;DHT22;4046;48.774;8.732;2022-10-16T05:32:40;20.20;99.90
8002;DHT22;4046;48.774;8.732;2022-10-16T05:35:06;20.10;99.90
8002;DHT22;4046;48.774;8.732;2022-10-16T05:37:32;20.10;99.90
8002;DHT22;4046;48.774;8.732;2022-10-16T05:39:58;20.10;99.90
8002;DHT22;4046;48.774;8.732;2022-10-16T05:42:24;20.10;99.90
8002;DHT22;4046;48.774;8.732;2022-10-16T05:44:49;20.10;99.90
8002;DHT22;4046;48.774;8.732;2022-10-16T05:47:15;20.10;99.90
8002;DHT22;4046;48.774;8.732;2022-10-16T05:49:41;20.10;99.90
8002;DHT22;4046;48.774;8.732;2022-10-16T05:52:06;20.10;99.90
8002;DHT22;4046;48.774;8.732;2022-10-16T05:54:32;20.10;99.90
8002;DHT22;4046;48.774;8.732;2022-10-16T05:56:58;20.10;99.90
8002;DHT22;4046;48.774;8.732;2022-10-16T05:59:24;20.10;99.90
8002;DHT22;4046;48.774;8.732;2022-10-16T06:01:49;20.10;99.90
8002;DHT22;4046;48.774;8.732;2022-10-16T06:04:15;20.10;99.90
8002;DHT22;4046;48.774;8.732;2022-10-16T06:06:41;20.10;99.90
8002;DHT22;4046;48.774;8.732;2022-10-16T06:09:06;20.10;99.90
8002;DHT22;4046;48.774;8.732;2022-10-16T06:11:33;20.10;99.90
8002;DHT22;4046;48.774;8.732;2022-10-16T06:14:00;20.10;99.90
8002;DHT22;4046;48.774;8.732;2022-10-16T06:16:34;20.10;99.90
8002;DHT22;4046;48.774;8.732;2022-10-16T06:19:00;20.10;99.90
8002;DHT22;4046;48.774;8.732;2022-10-16T06:21:27;20.10;99.90
8002;DHT22;4046;48.774;8.732;2022-10-16T06:23:54;20.10;99.90
8002;DHT22;4046;48.774;8.732;2022-10-16T06:26:23;20.10;99.90
8002;DHT22;4046;48.774;8.732;2022-10-16T06:28:49;20.10;99.90
8002;DHT22;4046;48.774;8.732;2022-10-16T06:31:16;20.10;99.90
8002;DHT22;4046;48.774;8.732;2022-10-16T06:33:42;20.10;99.90
8002;DHT22;4046;48.774;8.732;2022-10-16T06:36:10;20.10;99.90
8002;DHT22;4046;48.774;8.732;2022-10-16T06:38:37;20.20;99.90
8002;DHT22;4046;48.774;8.732;2022-10-16T06:41:04;20.10;99.90
8002;DHT22;4046;48.774;8.732;2022-10-16T06:43:31;20.10;99.90
8002;DHT22;4046;48.774;8.732;2022-10-16T06:46:05;20.10;99.90
8002;DHT22;4046;48.774;8.732;2022-10-16T06:48:33;20.10;99.90
8002;DHT22;4046;48.774;8.732;2022-10-16T06:51:04;20.10;99.90
8002;DHT22;4046;48.774;8.732;2022-10-16T06:53:32;20.00;99.90
8002;DHT22;4046;48.774;8.732;2022-10-16T06:58:34;20.10;99.90
8002;DHT22;4046;48.774;8.732;2022-10-16T07:01:00;20.10;99.90
8002;DHT22;4046;48.774;8.732;2022-10-16T07:03:25;20.10;99.90
8002;DHT22;4046;48.774;8.732;2022-10-16T07:05:51;20.10;99.90
8002;DHT22;4046;48.774;8.732;2022-10-16T07:08:17;20.10;99.90
8002;DHT22;4046;48.774;8.732;2022-10-16T07:10:43;20.10;99.90
8002;DHT22;4046;48.774;8.732;2022-10-16T07:13:08;20.00;99.90
8002;DHT22;4046;48.774;8.732;2022-10-16T07:15:34;20.00;99.90
8002;DHT22;4046;48.774;8.732;2022-10-16T07:18:00;20.10;99.90
8002;DHT22;4046;48.774;8.732;2022-10-16T07:20:25;20.00;99.90
8002;DHT22;4046;48.774;8.732;2022-10-16T07:22:52;20.10;99.90
8002;DHT22;4046;48.774;8.732;2022-10-16T07:25:18;20.10;99.90
8002;DHT22;4046;48.774;8.732;2022-10-16T07:27:43;20.10;99.90
8002;DHT22;4046;48.774;8.732;2022-10-16T07:30:09;20.00;99.90
8002;DHT22;4046;48.774;8.732;2022-10-16T07:32:35;20.00;99.90
8002;DHT22;4046;48.774;8.732;2022-10-16T07:35:01;20.10;99.90
8002;DHT22;4046;48.774;8.732;2022-10-16T07:37:26;20.10;99.90
8002;DHT22;4046;48.774;8.732;2022-10-16T07:39:52;20.10;99.90
8002;DHT22;4046;48.774;8.732;2022-10-16T07:42:18;20.10;99.90
8002;DHT22;4046;48.774;8.732;2022-10-16T07:44:43;20.10;99.90
8002;DHT22;4046;48.774;8.732;2022-10-16T07:47:09;20.10;99.90
8002;DHT22;4046;48.774;8.732;2022-10-16T07:49:35;20.10;99.90
8002;DHT22;4046;48.774;8.732;2022-10-16T07:52:00;20.10;99.90
8002;DHT22;4046;48.774;8.732;2022-10-16T07:54:26;20.10;99.90
8002;DHT22;4046;48.774;8.732;2022-10-16T07:56:52;20.20;99.90
8002;DHT22;4046;48.774;8.732;2022-10-16T07:59:17;20.30;99.90
8002;DHT22;4046;48.774;8.732;2022-10-16T08:01:43;20.30;99.90
8002;DHT22;4046;48.774;8.732;2022-10-16T08:04:11;20.30;99.90
8002;DHT22;4046;48.774;8.732;2022-10-16T08:06:38;20.30;99.90
8002;DHT22;4046;48.774;8.732;2022-10-16T08:09:05;20.30;99.90
8002;DHT22;4046;48.774;8.732;2022-10-16T08:11:31;20.30;99.90
8002;DHT22;4046;48.774;8.732;2022-10-16T08:13:57;20.30;99.90
8002;DHT22;4046;48.774;8.732;2022-10-16T08:16:23;20.30;99.90
8002;DHT22;4046;48.774;8.732;2022-10-16T08:18:49;20.20;99.90
8002;DHT22;4046;48.774;8.732;2022-10-16T08:21:19;20.30;99.90
8002;DHT22;4046;48.774;8.732;2022-10-16T08:23:45;20.30;99.90
8002;DHT22;4046;48.774;8.732;2022-10-16T08:26:11;20.30;99.90
8002;DHT22;4046;48.774;8.732;2022-10-16T08:28:37;20.30;99.90
8002;DHT22;4046;48.774;8.732;2022-10-16T08:33:32;20.30;99.90
8002;DHT22;4046;48.774;8.732;2022-10-16T08:36:00;20.50;99.90
8002;DHT22;4046;48.774;8.732;2022-10-16T08:38:26;20.30;99.90
8002;DHT22;4046;48.774;8.732;2022-10-16T08:40:52;20.30;99.90
8002;DHT22;4046;48.774;8.732;2022-10-16T08:43:40;20.30;99.90
8002;DHT22;4046;48.774;8.732;2022-10-16T08:48:46;20.30;99.90
8002;DHT22;4046;48.774;8.732;2022-10-16T08:51:19;20.30;99.90
8002;DHT22;4046;48.774;8.732;2022-10-16T08:53:54;20.40;99.90
8002;DHT22;4046;48.774;8.732;2022-10-16T08:56:19;20.30;99.90
8002;DHT22;4046;48.774;8.732;2022-10-16T08:58:46;20.40;99.90
8002;DHT22;4046;48.774;8.732;2022-10-16T09:01:16;20.60;99.90
8002;DHT22;4046;48.774;8.732;2022-10-16T09:04:20;20.70;99.90
8002;DHT22;4046;48.774;8.732;2022-10-16T09:07:09;20.80;99.90
8002;DHT22;4046;48.774;8.732;2022-10-16T09:10:14;20.90;99.90
8002;DHT22;4046;48.774;8.732;2022-10-16T09:12:56;20.90;99.90
8002;DHT22;4046;48.774;8.732;2022-10-16T09:15:41;20.90;99.90
8002;DHT22;4046;48.774;8.732;2022-10-16T09:18:15;20.90;99.90
8002;DHT22;4046;48.774;8.732;2022-10-16T09:21:08;20.90;99.90
8002;DHT22;4046;48.774;8.732;2022-10-16T09:23:36;20.90;99.90
8002;DHT22;4046;48.774;8.732;2022-10-16T09:26:02;20.90;99.90
8002;DHT22;4046;48.774;8.732;2022-10-16T09:28:29;21.00;99.90
8002;DHT22;4046;48.774;8.732;2022-10-16T09:30:54;21.10;99.90
8002;DHT22;4046;48.774;8.732;2022-10-16T09:33:24;21.30;99.90
8002;DHT22;4046;48.774;8.732;2022-10-16T09:35:53;21.40;99.90
8002;DHT22;4046;48.774;8.732;2022-10-16T09:38:33;21.50;99.90
8002;DHT22;4046;48.774;8.732;2022-10-16T09:41:03;23.90;99.90
8002;DHT22;4046;48.774;8.732;2022-10-16T09:43:57;24.20;99.90
8002;DHT22;4046;48.774;8.732;2022-10-16T09:46:27;23.90;99.90
8002;DHT22;4046;48.774;8.732;2022-10-16T09:49:05;24.00;99.90
8002;DHT22;4046;48.774;8.732;2022-10-16T09:51:41;25.10;99.90
8002;DHT22;4046;48.774;8.732;2022-10-16T09:56:37;23.60;99.90
8002;DHT22;4046;48.774;8.732;2022-10-16T09:59:18;23.20;99.90
8002;DHT22;4046;48.774;8.732;2022-10-16T10:01:50;23.10;99.90
8002;DHT22;4046;48.774;8.732;2022-10-16T10:04:21;22.80;99.90
8002;DHT22;4046;48.774;8.732;2022-10-16T10:06:55;22.60;99.90
8002;DHT22;4046;48.774;8.732;2022-10-16T10:11:58;22.30;99.90
8002;DHT22;4046;48.774;8.732;2022-10-16T10:14:34;22.10;99.90
8002;DHT22;4046;48.774;8.732;2022-10-16T10:22:24;21.90;99.90
8002;DHT22;4046;48.774;8.732;2022-10-16T10:24:57;21.90;99.90
8002;DHT22;4046;48.774;8.732;2022-10-16T10:30:22;21.90;99.90
8002;DHT22;4046;48.774;8.732;2022-10-16T10:38:27;22.00;99.90
8002;DHT22;4046;48.774;8.732;2022-10-16T10:44:07;22.00;99.90
8002;DHT22;4046;48.774;8.732;2022-10-16T10:46:58;22.10;99.90
8002;DHT22;4046;48.774;8.732;2022-10-16T10:49:45;22.10;99.90
8002;DHT22;4046;48.774;8.732;2022-10-16T11:01:16;22.00;99.90
8002;DHT22;4046;48.774;8.732;2022-10-16T11:04:35;22.00;99.90
8002;DHT22;4046;48.774;8.732;2022-10-16T11:07:06;22.00;99.90
8002;DHT22;4046;48.774;8.732;2022-10-16T11:09:45;22.00;99.90
8002;DHT22;4046;48.774;8.732;2022-10-16T11:12:19;21.90;99.90
8002;DHT22;4046;48.774;8.732;2022-10-16T11:14:58;21.90;99.90
8002;DHT22;4046;48.774;8.732;2022-10-16T11:17:41;21.90;99.90
8002;DHT22;4046;48.774;8.732;2022-10-16T11:22:50;21.90;99.90
8002;DHT22;4046;48.774;8.732;2022-10-16T11:25:46;22.00;99.90
8002;DHT22;4046;48.774;8.732;2022-10-16T11:28:17;22.00;99.90
8002;DHT22;4046;48.774;8.732;2022-10-16T11:30:55;22.00;99.90
8002;DHT22;4046;48.774;8.732;2022-10-16T11:33:37;22.00;99.90
8002;DHT22;4046;48.774;8.732;2022-10-16T11:36:33;22.00;99.90
8002;DHT22;4046;48.774;8.732;2022-10-16T11:39:25;22.00;99.90
8002;DHT22;4046;48.774;8.732;2022-10-16T11:41:50;22.00;99.90
8002;DHT22;4046;48.774;8.732;2022-10-16T11:44:41;22.00;99.90
8002;DHT22;4046;48.774;8.732;2022-10-16T11:47:31;22.00;99.90
8002;DHT22;4046;48.774;8.732;2022-10-16T11:50:20;22.00;99.90
8002;DHT22;4046;48.774;8.732;2022-10-16T11:55:43;22.00;99.90
8002;DHT22;4046;48.774;8.732;2022-10-16T12:03:45;22.00;99.90
8002;DHT22;4046;48.774;8.732;2022-10-16T12:06:33;22.00;99.90
8002;DHT22;4046;48.774;8.732;2022-10-16T12:09:02;22.00;99.90
8002;DHT22;4046;48.774;8.732;2022-10-16T12:14:20;22.10;99.90
8002;DHT22;4046;48.774;8.732;2022-10-16T12:17:00;22.10;99.90
8002;DHT22;4046;48.774;8.732;2022-10-16T12:19:31;22.10;99.90
8002;DHT22;4046;48.774;8.732;2022-10-16T12:22:00;22.00;99.90
8002;DHT22;4046;48.774;8.732;2022-10-16T12:26:54;22.00;99.90
8002;DHT22;4046;48.774;8.732;2022-10-16T12:29:33;22.10;99.90
8002;DHT22;4046;48.774;8.732;2022-10-16T12:32:00;22.10;99.90
8002;DHT22;4046;48.774;8.732;2022-10-16T12:34:31;22.10;99.90
8002;DHT22;4046;48.774;8.732;2022-10-16T12:37:20;22.10;99.90
8002;DHT22;4046;48.774;8.732;2022-10-16T12:39:48;22.00;99.90
8002;DHT22;4046;48.774;8.732;2022-10-16T12:42:34;22.10;99.90
8002;DHT22;4046;48.774;8.732;2022-10-16T12:45:01;22.10;99.90
8002;DHT22;4046;48.774;8.732;2022-10-16T12:49:55;22.10;99.90
8002;DHT22;4046;48.774;8.732;2022-10-16T12:52:36;22.10;99.90
8002;DHT22;4046;48.774;8.732;2022-10-16T12:55:04;22.10;99.90
8002;DHT22;4046;48.774;8.732;2022-10-16T12:57:59;22.10;99.90
8002;DHT22;4046;48.774;8.732;2022-10-16T13:03:34;22.10;99.90
8002;DHT22;4046;48.774;8.732;2022-10-16T13:06:28;22.20;99.90
8002;DHT22;4046;48.774;8.732;2022-10-16T13:15:01;22.20;99.90
8002;DHT22;4046;48.774;8.732;2022-10-16T13:22:48;22.10;99.90
8002;DHT22;4046;48.774;8.732;2022-10-16T13:25:40;22.00;99.90
8002;DHT22;4046;48.774;8.732;2022-10-16T13:28:08;22.00;99.90
8002;DHT22;4046;48.774;8.732;2022-10-16T13:30:51;22.00;99.90
8002;DHT22;4046;48.774;8.732;2022-10-16T13:33:24;21.90;99.90
8002;DHT22;4046;48.774;8.732;2022-10-16T13:35:53;21.90;99.90
8002;DHT22;4046;48.774;8.732;2022-10-16T13:38:21;21.90;99.90
8002;DHT22;4046;48.774;8.732;2022-10-16T13:40:55;22.00;99.90
8002;DHT22;4046;48.774;8.732;2022-10-16T13:43:25;22.00;99.90
8002;DHT22;4046;48.774;8.732;2022-10-16T13:45:56;22.00;99.90
8002;DHT22;4046;48.774;8.732;2022-10-16T13:48:22;22.10;99.90
8002;DHT22;4046;48.774;8.732;2022-10-16T13:50:58;22.10;99.90
8002;DHT22;4046;48.774;8.732;2022-10-16T13:53:24;22.10;99.90
8002;DHT22;4046;48.774;8.732;2022-10-16T13:55:50;22.10;99.90
8002;DHT22;4046;48.774;8.732;2022-10-16T13:58:15;22.10;99.90
8002;DHT22;4046;48.774;8.732;2022-10-16T14:00:57;22.10;99.90
8002;DHT22;4046;48.774;8.732;2022-10-16T14:03:24;22.20;99.90
8002;DHT22;4046;48.774;8.732;2022-10-16T14:05:53;22.10;99.90
8002;DHT22;4046;48.774;8.732;2022-10-16T14:08:20;22.20;99.90
8002;DHT22;4046;48.774;8.732;2022-10-16T14:10:51;22.20;99.90
8002;DHT22;4046;48.774;8.732;2022-10-16T14:13:32;22.30;99.90
8002;DHT22;4046;48.774;8.732;2022-10-16T14:16:15;22.20;99.90
8002;DHT22;4046;48.774;8.732;2022-10-16T14:18:46;22.20;99.90
8002;DHT22;4046;48.774;8.732;2022-10-16T14:21:14;22.20;99.90
8002;DHT22;4046;48.774;8.732;2022-10-16T14:23:41;22.20;99.90
8002;DHT22;4046;48.774;8.732;2022-10-16T14:28:39;22.30;99.90
8002;DHT22;4046;48.774;8.732;2022-10-16T14:31:29;22.30;99.90
8002;DHT22;4046;48.774;8.732;2022-10-16T14:33:55;22.30;99.90
8002;DHT22;4046;48.774;8.732;2022-10-16T14:36:22;22.30;99.90
8002;DHT22;4046;48.774;8.732;2022-10-16T14:41:23;22.30;99.90
8002;DHT22;4046;48.774;8.732;2022-10-16T14:43:58;22.30;99.90
8002;DHT22;4046;48.774;8.732;2022-10-16T14:46:38;22.30;99.90
8002;DHT22;4046;48.774;8.732;2022-10-16T14:51:38;22.30;99.90
8002;DHT22;4046;48.774;8.732;2022-10-16T14:54:04;22.30;99.90
8002;DHT22;4046;48.774;8.732;2022-10-16T14:56:33;22.30;99.90
8002;DHT22;4046;48.774;8.732;2022-10-16T14:59:01;22.30;99.90
8002;DHT22;4046;48.774;8.732;2022-10-16T15:01:27;22.30;99.90
8002;DHT22;4046;48.774;8.732;2022-10-16T15:03:53;22.40;99.90
8002;DHT22;4046;48.774;8.732;2022-10-16T15:06:20;22.40;99.90
8002;DHT22;4046;48.774;8.732;2022-10-16T15:08:46;22.30;99.90
8002;DHT22;4046;48.774;8.732;2022-10-16T15:11:14;22.40;99.90
8002;DHT22;4046;48.774;8.732;2022-10-16T15:13:41;22.30;99.90
8002;DHT22;4046;48.774;8.732;2022-10-16T15:16:15;22.30;99.90
8002;DHT22;4046;48.774;8.732;2022-10-16T15:18:41;22.40;99.90
8002;DHT22;4046;48.774;8.732;2022-10-16T15:21:07;22.30;99.90
8002;DHT22;4046;48.774;8.732;2022-10-16T15:23:33;22.40;99.90
8002;DHT22;4046;48.774;8.732;2022-10-16T15:25:59;22.30;99.90
8002;DHT22;4046;48.774;8.732;2022-10-16T15:28:25;22.30;99.90
8002;DHT22;4046;48.774;8.732;2022-10-16T15:30:54;22.40;99.90
8002;DHT22;4046;48.774;8.732;2022-10-16T15:33:23;22.30;99.90
8002;DHT22;4046;48.774;8.732;2022-10-16T15:35:50;22.30;99.90
8002;DHT22;4046;48.774;8.732;2022-10-16T15:38:18;22.30;99.90
8002;DHT22;4046;48.774;8.732;2022-10-16T15:40:43;22.30;99.90
8002;DHT22;4046;48.774;8.732;2022-10-16T15:43:09;22.30;99.90
8002;DHT22;4046;48.774;8.732;2022-10-16T15:45:35;22.30;99.90
8002;DHT22;4046;48.774;8.732;2022-10-16T15:48:01;22.30;99.90
8002;DHT22;4046;48.774;8.732;2022-10-16T15:50:27;22.30;99.90
8002;DHT22;4046;48.774;8.732;2022-10-16T15:52:53;22.30;99.90
8002;DHT22;4046;48.774;8.732;2022-10-16T15:55:19;22.30;99.90
8002;DHT22;4046;48.774;8.732;2022-10-16T15:57:45;22.30;99.90
8002;DHT22;4046;48.774;8.732;2022-10-16T16:00:17;22.30;99.90
8002;DHT22;4046;48.774;8.732;2022-10-16T16:02:43;22.30;99.90
8002;DHT22;4046;48.774;8.732;2022-10-16T16:05:10;22.30;99.90
8002;DHT22;4046;48.774;8.732;2022-10-16T16:07:38;22.30;99.90
8002;DHT22;4046;48.774;8.732;2022-10-16T16:10:06;22.30;99.90
8002;DHT22;4046;48.774;8.732;2022-10-16T16:12:32;22.30;99.90
8002;DHT22;4046;48.774;8.732;2022-10-16T16:14:58;22.30;99.90
8002;DHT22;4046;48.774;8.732;2022-10-16T16:17:24;22.30;99.90
8002;DHT22;4046;48.774;8.732;2022-10-16T16:19:50;22.40;99.90
8002;DHT22;4046;48.774;8.732;2022-10-16T16:22:16;22.30;99.90
8002;DHT22;4046;48.774;8.732;2022-10-16T16:24:42;22.30;99.90
8002;DHT22;4046;48.774;8.732;2022-10-16T16:27:08;22.30;99.90
8002;DHT22;4046;48.774;8.732;2022-10-16T16:29:34;22.30;99.90
8002;DHT22;4046;48.774;8.732;2022-10-16T16:32:00;22.20;99.90
8002;DHT22;4046;48.774;8.732;2022-10-16T16:34:27;22.20;99.90
8002;DHT22;4046;48.774;8.732;2022-10-16T16:36:54;22.20;99.90
8002;DHT22;4046;48.774;8.732;2022-10-16T16:39:20;22.30;99.90
8002;DHT22;4046;48.774;8.732;2022-10-16T16:41:46;22.30;99.90
8002;DHT22;4046;48.774;8.732;2022-10-16T16:44:13;22.30;99.90
8002;DHT22;4046;48.774;8.732;2022-10-16T16:46:40;22.30;99.90
8002;DHT22;4046;48.774;8.732;2022-10-16T16:49:06;22.30;99.90
8002;DHT22;4046;48.774;8.732;2022-10-16T16:51:32;22.30;99.90
8002;DHT22;4046;48.774;8.732;2022-10-16T16:53:58;22.30;99.90
8002;DHT22;4046;48.774;8.732;2022-10-16T16:56:25;22.30;99.90
8002;DHT22;4046;48.774;8.732;2022-10-16T16:58:53;22.30;99.90
8002;DHT22;4046;48.774;8.732;2022-10-16T17:01:19;22.30;99.90
8002;DHT22;4046;48.774;8.732;2022-10-16T17:03:45;22.30;99.90
8002;DHT22;4046;48.774;8.732;2022-10-16T17:06:12;22.30;99.90
8002;DHT22;4046;48.774;8.732;2022-10-16T17:08:40;22.30;99.90
8002;DHT22;4046;48.774;8.732;2022-10-16T17:11:11;22.30;99.90
8002;DHT22;4046;48.774;8.732;2022-10-16T17:13:37;22.30;99.90
8002;DHT22;4046;48.774;8.732;2022-10-16T17:16:04;22.30;99.90
8002;DHT22;4046;48.774;8.732;2022-10-16T17:18:31;22.30;99.90
8002;DHT22;4046;48.774;8.732;2022-10-16T17:21:02;22.40;99.90
8002;DHT22;4046;48.774;8.732;2022-10-16T17:23:29;22.30;99.90
8002;DHT22;4046;48.774;8.732;2022-10-16T17:25:55;22.40;99.90
8002;DHT22;4046;48.774;8.732;2022-10-16T17:28:21;22.40;99.90
8002;DHT22;4046;48.774;8.732;2022-10-16T17:30:46;22.40;99.90
8002;DHT22;4046;48.774;8.732;2022-10-16T17:33:13;22.40;99.90
8002;DHT22;4046;48.774;8.732;2022-10-16T17:35:44;22.40;99.90
8002;DHT22;4046;48.774;8.732;2022-10-16T17:38:11;22.40;99.90
8002;DHT22;4046;48.774;8.732;2022-10-16T17:40:38;22.30;99.90
8002;DHT22;4046;48.774;8.732;2022-10-16T17:43:03;22.30;99.90
8002;DHT22;4046;48.774;8.732;2022-10-16T17:45:30;22.30;99.90
8002;DHT22;4046;48.774;8.732;2022-10-16T17:47:57;22.30;99.90